createdAt,value
2018-04-23T00:03:42.642Z,96.30
2018-04-23T00:08:47.868Z,97.50
2018-04-23T00:13:51.167Z,98.60
2018-04-23T00:19:02.941Z,98.90
2018-04-23T00:29:15.759Z,99.60
2018-04-23T00:34:18.661Z,98.50
2018-04-23T00:39:21.609Z,98.80
2018-04-23T00:44:24.511Z,99.70
2018-04-23T00:49:28.333Z,99.80
2018-04-23T00:54:31.296Z,99.30
2018-04-23T00:59:34.160Z,99.80
2018-04-23T01:04:37.024Z,99.90
2018-04-23T01:09:39.864Z,99.60
2018-04-23T01:14:43.171Z,99.50
2018-04-23T01:19:46.038Z,98.50
2018-04-23T01:24:49.068Z,99.10
2018-04-23T01:29:53.091Z,98.60
2018-04-23T01:34:58.123Z,98.60
2018-04-23T01:40:03.710Z,98.00
2018-04-23T01:45:06.711Z,97.60
2018-04-23T01:50:09.781Z,96.80
2018-04-23T01:55:13.096Z,96.20
2018-04-23T02:00:18.368Z,95.60
2018-04-23T02:05:24.935Z,94.90
2018-04-23T02:10:29.578Z,94.70
2018-04-23T02:15:33.085Z,94.70
2018-04-23T02:20:37.280Z,94.60
2018-04-23T02:25:45.627Z,94.20
2018-04-23T02:30:50.172Z,94.20
2018-04-23T02:35:53.366Z,93.80
2018-04-23T02:40:56.578Z,94.10
2018-04-23T02:46:00.736Z,94.40
2018-04-23T02:56:25.953Z,95.10
2018-04-23T03:01:29.574Z,95.60
2018-04-23T03:06:33.479Z,95.00
2018-04-23T03:11:36.323Z,95.00
2018-04-23T03:16:42.171Z,94.80
2018-04-23T03:21:48.789Z,95.20
2018-04-23T03:26:54.288Z,95.10
2018-04-23T03:31:59.340Z,95.10
2018-04-23T03:37:02.693Z,95.10
2018-04-23T03:42:06.600Z,95.30
2018-04-23T03:47:10.564Z,95.80
2018-04-23T03:52:13.430Z,95.70
2018-04-23T03:57:17.063Z,96.30
2018-04-23T04:02:20.059Z,96.30
2018-04-23T04:07:23.922Z,96.60
2018-04-23T04:12:39.800Z,96.70
2018-04-23T04:23:35.779Z,97.40
2018-04-23T04:28:39.739Z,97.80
2018-04-23T04:33:42.929Z,97.80
2018-04-23T04:38:46.827Z,98.00
2018-04-23T04:43:49.683Z,98.00
2018-04-23T04:48:52.536Z,97.90
2018-04-23T04:53:55.634Z,98.40
2018-04-23T04:58:58.458Z,98.50
2018-04-23T05:04:02.075Z,98.70
2018-04-23T05:09:06.195Z,99.10
2018-04-23T05:14:09.299Z,99.10
2018-04-23T05:19:12.531Z,99.40
2018-04-23T05:24:16.322Z,99.10
2018-04-23T05:29:19.236Z,99.50
2018-04-23T05:34:22.568Z,99.30
2018-04-23T05:39:25.744Z,99.60
2018-04-23T05:44:28.554Z,99.70
2018-04-23T05:49:31.338Z,99.50
2018-04-23T05:54:34.181Z,99.90
2018-04-23T05:59:37.024Z,99.90
2018-04-23T06:04:39.864Z,99.90
2018-04-23T06:09:43.443Z,99.90
2018-04-23T06:14:46.447Z,99.90
2018-04-23T06:19:49.256Z,99.90
2018-04-23T06:24:52.852Z,99.90
2018-04-23T06:29:55.965Z,99.90
2018-04-23T06:34:58.971Z,99.90
2018-04-23T06:40:01.821Z,99.90
2018-04-23T06:45:04.928Z,99.90
2018-04-23T06:50:07.746Z,99.90
2018-04-23T06:55:10.587Z,99.90
2018-04-23T07:00:13.701Z,99.90
2018-04-23T07:05:17.295Z,99.90
2018-04-23T07:10:20.138Z,99.90
2018-04-23T07:15:23.027Z,99.90
2018-04-23T07:20:26.589Z,99.90
2018-04-23T07:25:29.743Z,99.90
2018-04-23T07:30:32.810Z,99.90
2018-04-23T07:35:35.656Z,99.90
2018-04-23T07:40:39.589Z,99.90
2018-04-23T07:45:42.508Z,99.90
2018-04-23T07:50:45.336Z,99.90
2018-04-23T07:55:48.157Z,99.90
2018-04-23T08:00:51.274Z,99.90
2018-04-23T08:05:54.119Z,99.90
2018-04-23T08:10:56.938Z,99.90
2018-04-23T08:15:59.836Z,99.90
2018-04-23T08:21:02.625Z,99.90
2018-04-23T08:26:05.637Z,99.90
2018-04-23T08:31:08.812Z,99.90
2018-04-23T08:36:11.627Z,99.90
2018-04-23T08:41:14.469Z,99.90
2018-04-23T08:46:17.311Z,99.90
2018-04-23T08:51:20.213Z,99.90
2018-04-23T08:56:23.833Z,99.90
2018-04-23T09:01:27.424Z,99.90
2018-04-23T09:06:30.276Z,99.90
2018-04-23T09:11:33.467Z,99.90
2018-04-23T09:16:36.322Z,99.90
2018-04-23T09:21:39.206Z,99.90
2018-04-23T09:26:42.076Z,99.90
2018-04-23T09:31:45.300Z,99.90
2018-04-23T09:36:48.153Z,99.90
2018-04-23T09:41:50.952Z,99.90
2018-04-23T09:46:53.821Z,99.90
2018-04-23T09:51:56.847Z,99.90
2018-04-23T09:57:00.105Z,99.90
2018-04-23T10:02:03.106Z,99.90
2018-04-23T10:07:07.727Z,99.90
2018-04-23T10:12:10.547Z,99.90
2018-04-23T10:17:15.833Z,99.90
2018-04-23T10:22:19.056Z,99.90
2018-04-23T10:27:21.911Z,99.90
2018-04-23T10:32:26.031Z,99.90
2018-04-23T10:37:30.422Z,99.90
2018-04-23T10:42:33.610Z,99.90
2018-04-23T10:47:36.879Z,99.90
2018-04-23T10:52:40.800Z,99.90
2018-04-23T10:57:43.673Z,99.90
2018-04-23T11:02:46.504Z,99.90
2018-04-23T11:07:49.976Z,99.90
2018-04-23T11:12:53.396Z,99.90
2018-04-23T11:17:56.545Z,99.90
2018-04-23T11:23:00.359Z,99.30
2018-04-23T11:28:03.635Z,98.00
2018-04-23T11:33:07.611Z,95.80
2018-04-23T11:38:10.822Z,94.40
2018-04-23T11:43:14.422Z,94.60
2018-04-23T11:48:17.279Z,94.60
2018-04-23T11:53:20.113Z,93.60
2018-04-23T11:58:23.396Z,93.20
2018-04-23T12:03:26.510Z,93.80
2018-04-23T12:08:29.336Z,93.70
2018-04-23T12:13:32.302Z,94.00
2018-04-23T12:18:35.449Z,95.10
2018-04-23T12:23:38.518Z,95.20
2018-04-23T12:28:41.375Z,94.90
2018-04-23T12:33:44.186Z,95.10
2018-04-23T12:38:49.590Z,98.20
2018-04-23T12:43:52.723Z,98.20
2018-04-23T12:48:56.055Z,97.60
2018-04-23T12:54:01.838Z,97.30
2018-04-23T12:59:04.797Z,97.10
2018-04-23T13:04:07.678Z,98.00
2018-04-23T13:09:11.123Z,99.90
2018-04-23T13:14:14.956Z,99.90
2018-04-23T13:19:17.969Z,99.90
2018-04-23T13:24:21.224Z,99.90
2018-04-23T13:29:24.309Z,99.90
2018-04-23T13:34:27.490Z,99.90
2018-04-23T13:39:30.850Z,99.90
2018-04-23T13:44:34.422Z,99.90
2018-04-23T13:49:38.192Z,99.90
2018-04-23T13:54:41.360Z,99.90
2018-04-23T13:59:45.636Z,99.90
2018-04-23T14:04:48.688Z,99.90
2018-04-23T14:09:52.635Z,99.90
2018-04-23T14:14:56.592Z,99.90
2018-04-23T14:19:59.710Z,99.90
2018-04-23T14:25:02.851Z,99.90
2018-04-23T14:30:05.715Z,99.90
2018-04-23T14:35:08.596Z,99.90
2018-04-23T14:40:11.477Z,99.90
2018-04-23T14:45:15.290Z,99.90
2018-04-23T14:50:19.119Z,99.90
2018-04-23T14:55:22.832Z,99.90
2018-04-23T15:00:26.618Z,99.90
2018-04-23T15:05:29.445Z,99.90
2018-04-23T15:10:32.292Z,99.90
2018-04-23T15:15:35.358Z,99.90
2018-04-23T15:20:39.697Z,99.90
2018-04-23T15:25:42.571Z,99.90
2018-04-23T15:30:45.688Z,99.90
2018-04-23T15:35:48.487Z,99.90
2018-04-23T15:40:51.278Z,99.90
2018-04-23T15:45:54.389Z,99.90
2018-04-23T15:50:57.177Z,99.90
2018-04-23T15:56:00.242Z,99.90
2018-04-23T16:01:04.104Z,99.90
2018-04-23T16:06:07.259Z,99.90
2018-04-23T16:11:10.840Z,99.90
2018-04-23T16:16:13.672Z,99.90
2018-04-23T16:21:17.329Z,99.90
2018-04-23T16:26:20.538Z,99.90
2018-04-23T16:31:23.664Z,99.90
2018-04-23T16:36:27.310Z,99.90
2018-04-23T16:41:31.700Z,99.90
2018-04-23T16:46:34.807Z,99.90
2018-04-23T16:51:37.987Z,99.90
2018-04-23T16:56:40.887Z,99.90
2018-04-23T17:01:44.583Z,99.90
2018-04-23T17:06:47.688Z,99.90
2018-04-23T17:11:51.215Z,99.90
2018-04-23T17:16:55.104Z,99.90
2018-04-23T17:21:59.360Z,99.90
2018-04-23T17:27:02.500Z,99.90
2018-04-23T17:37:45.817Z,99.90
2018-04-23T17:42:49.354Z,99.90
2018-04-23T17:47:53.070Z,99.90
2018-04-23T17:52:57.512Z,99.90
2018-04-23T17:58:03.529Z,99.90
2018-04-23T18:03:08.426Z,99.90
2018-04-23T18:08:14.409Z,99.90
2018-04-23T18:13:17.622Z,99.90
2018-04-23T18:18:20.651Z,99.90
2018-04-23T18:23:24.325Z,99.90
2018-04-23T18:28:27.665Z,99.90
2018-04-23T18:33:31.362Z,99.90
2018-04-23T18:38:35.852Z,99.90
2018-04-23T18:43:39.787Z,99.90
2018-04-23T18:48:44.867Z,99.90
2018-04-23T18:53:47.888Z,99.90
2018-04-23T18:58:51.880Z,99.90
2018-04-23T19:03:56.234Z,99.90
2018-04-23T19:09:03.407Z,99.90
2018-04-23T19:14:07.204Z,99.90
2018-04-23T19:19:10.974Z,99.90
2018-04-23T19:24:14.636Z,99.90
2018-04-23T19:29:17.772Z,99.90
2018-04-23T19:34:20.837Z,99.90
2018-04-23T19:39:24.720Z,99.90
2018-04-23T19:44:28.519Z,99.90
2018-04-23T19:49:31.566Z,99.90
2018-04-23T19:54:34.783Z,99.90
2018-04-23T19:59:37.633Z,99.90
2018-04-23T20:04:40.886Z,99.90
2018-04-23T20:09:46.636Z,99.90
2018-04-23T20:14:49.568Z,99.90
2018-04-23T20:19:52.609Z,99.90
2018-04-23T20:24:55.492Z,99.90
2018-04-23T20:29:58.744Z,99.90
2018-04-23T20:35:01.645Z,99.90
2018-04-23T20:40:07.594Z,99.90
2018-04-23T20:45:11.812Z,99.90
2018-04-23T20:50:16.463Z,99.90
2018-04-23T20:55:19.651Z,99.90
2018-04-23T21:00:34.316Z,99.90
2018-04-23T21:05:37.945Z,99.90
2018-04-23T21:10:41.606Z,99.90
2018-04-23T21:15:48.459Z,99.90
2018-04-23T21:20:52.459Z,99.90
2018-04-23T21:25:56.484Z,99.90
2018-04-23T21:31:00.144Z,99.90
2018-04-23T21:36:02.961Z,99.90
2018-04-23T21:41:09.011Z,99.90
2018-04-23T21:46:13.562Z,99.90
2018-04-23T21:51:17.055Z,99.90
2018-04-23T21:56:20.261Z,99.90
2018-04-23T22:01:23.121Z,99.90
2018-04-23T22:06:26.087Z,99.90
2018-04-23T22:11:30.373Z,99.90
2018-04-23T22:16:35.055Z,99.90
2018-04-23T22:21:37.914Z,99.90
2018-04-23T22:26:41.538Z,99.90
2018-04-23T22:31:45.486Z,99.90
2018-04-23T22:36:50.331Z,99.90
2018-04-23T22:41:53.139Z,99.90
2018-04-23T22:46:56.357Z,99.90
2018-04-23T22:52:00.269Z,99.90
2018-04-23T22:57:03.377Z,99.90
2018-04-23T23:02:06.256Z,99.90
2018-04-23T23:07:09.079Z,99.90
2018-04-23T23:12:12.004Z,99.90
2018-04-23T23:17:15.190Z,99.90
2018-04-23T23:22:18.349Z,99.90
2018-04-23T23:27:21.625Z,99.90
2018-04-23T23:32:24.570Z,99.90
2018-04-23T23:37:27.471Z,99.90
2018-04-23T23:42:30.576Z,99.90
2018-04-23T23:47:33.527Z,99.90
2018-04-23T23:52:36.602Z,99.90
2018-04-23T23:57:40.501Z,99.90
